createdAt,value
2022-10-04T00:01:19.221Z,123.97
2022-10-04T00:04:32.463Z,131.13
2022-10-04T00:07:16.723Z,125.88
2022-10-04T00:09:57.540Z,117.32
2022-10-04T00:12:45.968Z,118.38
2022-10-04T00:15:35.191Z,118.50
2022-10-04T00:18:11.723Z,128.60
2022-10-04T00:20:53.667Z,119.05
2022-10-04T00:23:23.294Z,118.22
2022-10-04T00:26:10.640Z,124.70
2022-10-04T00:28:37.148Z,126.32
2022-10-04T00:31:14.329Z,127.43
2022-10-04T00:34:03.871Z,133.38
2022-10-04T00:36:37.928Z,120.45
2022-10-04T00:39:15.560Z,120.50
2022-10-04T00:41:48.239Z,128.30
2022-10-04T00:44:40.615Z,127.25
2022-10-04T00:47:37.070Z,126.22
2022-10-04T00:50:22.004Z,124.13
2022-10-04T00:52:54.407Z,126.82
2022-10-04T00:55:39.432Z,116.20
2022-10-04T00:58:15.613Z,122.63
2022-10-04T01:03:21.203Z,129.30
2022-10-04T01:05:55.791Z,122.63
2022-10-04T01:08:25.416Z,123.65
2022-10-04T01:10:57.663Z,120.28
2022-10-04T01:13:37.029Z,117.72
2022-10-04T01:16:19.980Z,119.68
2022-10-04T01:18:47.700Z,128.38
2022-10-04T01:21:20.579Z,123.63
2022-10-04T01:24:15.966Z,119.00
2022-10-04T01:26:44.678Z,122.03
2022-10-04T01:29:25.041Z,119.95
2022-10-04T01:31:58.995Z,128.75
2022-10-04T01:34:28.139Z,130.70
2022-10-04T01:36:57.459Z,131.45
2022-10-04T01:39:26.279Z,120.30
2022-10-04T01:41:53.218Z,123.47
2022-10-04T01:44:29.963Z,127.03
2022-10-04T01:47:00.868Z,129.02
2022-10-04T01:49:32.423Z,118.20
2022-10-04T01:52:14.947Z,121.25
2022-10-04T01:54:45.582Z,127.13
2022-10-04T01:57:23.639Z,123.35
2022-10-04T02:00:02.135Z,123.95
2022-10-04T02:02:34.419Z,123.65
2022-10-04T02:05:03.338Z,126.38
2022-10-04T02:07:32.751Z,130.50
2022-10-04T02:10:06.546Z,123.10
2022-10-04T02:12:34.895Z,126.07
2022-10-04T02:15:06.484Z,133.43
2022-10-04T02:17:39.563Z,126.93
2022-10-04T02:20:29.558Z,120.68
2022-10-04T02:23:03.656Z,126.13
2022-10-04T02:25:30.845Z,133.48
2022-10-04T02:27:58.073Z,135.02
2022-10-04T02:30:25.123Z,125.00
2022-10-04T02:33:00.572Z,123.55
2022-10-04T02:35:44.891Z,124.85
2022-10-04T02:38:22.824Z,133.70
2022-10-04T02:40:57.240Z,131.15
2022-10-04T02:43:30.434Z,134.85
2022-10-04T02:46:08.570Z,128.43
2022-10-04T02:48:39.184Z,121.50
2022-10-04T02:51:16.492Z,131.93
2022-10-04T02:53:53.123Z,122.78
2022-10-04T02:56:22.367Z,132.77
2022-10-04T02:58:49.350Z,123.25
2022-10-04T03:01:25.907Z,121.93
2022-10-04T03:03:55.145Z,121.07
2022-10-04T03:06:26.237Z,122.93
2022-10-04T03:09:05.666Z,124.15
2022-10-04T03:11:39.085Z,125.55
2022-10-04T03:14:13.721Z,130.68
2022-10-04T03:16:43.933Z,120.40
2022-10-04T03:19:12.208Z,136.52
2022-10-04T03:21:40.977Z,118.57
2022-10-04T03:24:15.712Z,126.45
2022-10-04T03:26:47.004Z,130.57
2022-10-04T03:29:16.240Z,125.72
2022-10-04T03:31:49.186Z,118.03
2022-10-04T03:34:19.288Z,121.53
2022-10-04T03:36:49.351Z,121.63
2022-10-04T03:39:39.713Z,133.18
2022-10-04T03:42:17.918Z,132.40
2022-10-04T03:44:46.706Z,130.32
2022-10-04T03:47:22.471Z,119.18
2022-10-04T03:49:51.197Z,121.32
2022-10-04T03:52:37.981Z,116.00
2022-10-04T03:57:36.948Z,128.05
2022-10-04T04:00:05.721Z,124.93
2022-10-04T04:02:45.989Z,122.82
2022-10-04T04:05:24.174Z,119.55
2022-10-04T04:08:06.926Z,120.80
2022-10-04T04:10:45.623Z,118.25
2022-10-04T04:13:35.400Z,128.82
2022-10-04T04:16:02.790Z,125.43
2022-10-04T04:18:35.813Z,115.15
2022-10-04T04:21:04.887Z,127.72
2022-10-04T04:23:35.086Z,121.95
2022-10-04T04:26:19.758Z,114.93
2022-10-04T04:28:53.050Z,131.18
2022-10-04T04:31:25.733Z,123.05
2022-10-04T04:34:06.418Z,125.28
2022-10-04T04:36:41.384Z,117.38
2022-10-04T04:39:34.791Z,117.85
2022-10-04T04:42:10.629Z,112.30
2022-10-04T04:45:05.350Z,120.25
2022-10-04T04:47:40.721Z,120.03
2022-10-04T04:50:35.830Z,125.63
2022-10-04T04:53:12.770Z,113.88
2022-10-04T04:56:02.733Z,114.78
2022-10-04T04:58:37.584Z,119.95
2022-10-04T05:01:23.654Z,130.05
2022-10-04T05:04:08.967Z,123.65
2022-10-04T05:06:38.196Z,124.03
2022-10-04T05:09:06.193Z,127.78
2022-10-04T05:11:38.909Z,115.35
2022-10-04T05:14:09.704Z,130.40
2022-10-04T05:16:42.533Z,130.35
2022-10-04T05:19:16.996Z,131.18
2022-10-04T05:21:47.234Z,124.20
2022-10-04T05:24:31.363Z,114.22
2022-10-04T05:27:05.923Z,123.95
2022-10-04T05:29:36.057Z,121.07
2022-10-04T05:32:05.825Z,118.63
2022-10-04T05:34:40.019Z,116.38
2022-10-04T05:37:32.650Z,124.32
2022-10-04T05:40:05.290Z,119.18
2022-10-04T05:42:41.520Z,129.85
2022-10-04T05:47:42.464Z,109.85
2022-10-04T05:50:41.783Z,120.05
2022-10-04T05:53:21.210Z,114.30
2022-10-04T05:56:01.738Z,116.38
2022-10-04T05:58:40.469Z,115.00
2022-10-04T06:01:31.667Z,118.32
2022-10-04T06:04:49.171Z,118.32
2022-10-04T06:07:16.477Z,122.70
2022-10-04T06:09:56.242Z,117.28
2022-10-04T06:12:31.686Z,117.47
2022-10-04T06:15:23.331Z,125.38
2022-10-04T06:18:31.155Z,122.60
2022-10-04T06:21:17.187Z,135.10
2022-10-04T06:24:10.469Z,128.77
2022-10-04T06:26:40.644Z,134.50
2022-10-04T06:29:14.892Z,135.52
2022-10-04T06:32:26.641Z,127.22
2022-10-04T06:35:24.921Z,126.57
2022-10-04T06:38:06.642Z,118.35
2022-10-04T06:40:57.747Z,124.75
2022-10-04T06:43:48.645Z,130.63
2022-10-04T06:47:11.113Z,121.68
2022-10-04T06:49:43.695Z,132.90
2022-10-04T06:52:17.994Z,134.40
2022-10-04T06:55:20.130Z,124.72
2022-10-04T06:57:58.459Z,123.35
2022-10-04T07:00:26.732Z,138.00
2022-10-04T07:03:12.684Z,122.25
2022-10-04T07:05:50.574Z,127.28
2022-10-04T07:08:48.031Z,122.47
2022-10-04T07:11:17.481Z,124.35
2022-10-04T07:13:57.778Z,137.10
2022-10-04T07:16:37.302Z,124.57
2022-10-04T07:19:19.194Z,136.70
2022-10-04T07:21:56.087Z,135.35
2022-10-04T07:24:57.334Z,127.03
2022-10-04T07:28:15.101Z,135.40
2022-10-04T07:30:52.420Z,130.00
2022-10-04T07:33:24.185Z,136.52
2022-10-04T07:36:09.646Z,129.48
2022-10-04T07:38:47.484Z,137.00
2022-10-04T07:41:26.911Z,126.82
2022-10-04T07:43:59.803Z,131.52
2022-10-04T07:46:26.424Z,130.18
2022-10-04T07:48:53.061Z,136.10
2022-10-04T07:51:28.869Z,136.45
2022-10-04T07:54:19.336Z,132.27
2022-10-04T07:57:11.767Z,134.38
2022-10-04T07:59:48.715Z,136.77
2022-10-04T08:02:43.048Z,135.88
2022-10-04T08:05:28.443Z,138.98
2022-10-04T08:08:22.752Z,136.60
2022-10-04T08:11:18.859Z,136.00
2022-10-04T08:13:51.258Z,139.80
2022-10-04T08:16:23.873Z,141.45
2022-10-04T08:19:27.646Z,138.55
2022-10-04T08:22:05.524Z,141.20
2022-10-04T08:25:10.177Z,138.55
2022-10-04T08:28:07.656Z,136.88
2022-10-04T08:30:52.021Z,141.20
2022-10-04T08:33:36.829Z,151.05
2022-10-04T08:36:16.100Z,149.55
2022-10-04T08:39:20.816Z,145.20
2022-10-04T08:42:32.373Z,142.75
2022-10-04T08:45:17.069Z,154.13
2022-10-04T08:48:24.659Z,143.75
2022-10-04T08:51:17.144Z,146.90
2022-10-04T08:54:08.131Z,143.13
2022-10-04T08:56:40.922Z,149.90
2022-10-04T08:59:49.910Z,147.75
2022-10-04T09:02:38.270Z,148.95
2022-10-04T09:05:29.530Z,151.98
2022-10-04T09:08:34.838Z,144.32
2022-10-04T09:11:01.399Z,155.10
2022-10-04T09:14:01.898Z,155.80
2022-10-04T09:16:57.496Z,153.00
2022-10-04T09:19:50.009Z,151.00
2022-10-04T09:22:19.888Z,148.00
2022-10-04T09:25:03.001Z,152.77
2022-10-04T09:27:57.785Z,159.23
2022-10-04T09:30:34.396Z,150.40
2022-10-04T09:33:32.217Z,151.30
2022-10-04T09:36:17.671Z,152.85
2022-10-04T09:39:30.076Z,154.77
2022-10-04T09:42:08.548Z,165.35
2022-10-04T09:45:06.115Z,156.55
2022-10-04T09:47:41.110Z,152.98
2022-10-04T09:50:26.857Z,162.10
2022-10-04T09:53:03.017Z,161.52
2022-10-04T09:55:49.131Z,156.68
2022-10-04T09:58:51.591Z,156.75
2022-10-04T10:01:24.794Z,160.52
2022-10-04T10:04:13.518Z,157.52
2022-10-04T10:06:51.469Z,163.85
2022-10-04T10:09:51.864Z,159.55
2022-10-04T10:12:43.256Z,155.05
2022-10-04T10:15:58.309Z,151.68
2022-10-04T10:18:59.318Z,154.15
2022-10-04T10:21:39.464Z,164.18
2022-10-04T10:24:47.655Z,158.52
2022-10-04T10:27:38.109Z,153.50
2022-10-04T10:30:25.462Z,155.30
2022-10-04T10:33:08.519Z,156.75
2022-10-04T10:36:17.225Z,150.88
2022-10-04T10:39:17.351Z,158.57
2022-10-04T10:42:07.611Z,151.43
2022-10-04T10:44:47.900Z,161.52
2022-10-04T10:47:36.602Z,151.68
2022-10-04T10:50:21.488Z,156.45
2022-10-04T10:53:12.170Z,166.10
2022-10-04T10:56:16.236Z,157.50
2022-10-04T10:59:12.286Z,166.70
2022-10-04T11:01:53.623Z,166.30
2022-10-04T11:04:35.925Z,162.23
2022-10-04T11:07:27.577Z,158.93
2022-10-04T11:10:15.943Z,157.85
2022-10-04T11:13:00.960Z,160.60
2022-10-04T11:15:33.064Z,158.65
2022-10-04T11:18:47.667Z,164.63
2022-10-04T11:21:52.922Z,154.32
2022-10-04T11:24:37.544Z,158.45
2022-10-04T11:27:28.572Z,166.23
2022-10-04T11:30:23.557Z,163.18
2022-10-04T11:33:23.845Z,158.00
2022-10-04T11:36:28.188Z,163.80
2022-10-04T11:39:12.104Z,161.73
2022-10-04T11:41:48.276Z,160.90
2022-10-04T11:44:33.677Z,164.90
2022-10-04T11:47:08.120Z,160.73
2022-10-04T11:49:43.900Z,161.60
2022-10-04T11:55:21.163Z,164.35
2022-10-04T11:58:11.983Z,171.27
2022-10-04T12:01:00.958Z,166.98
2022-10-04T12:03:37.322Z,164.00
2022-10-04T12:06:15.070Z,163.65
2022-10-04T12:08:47.117Z,160.10
2022-10-04T12:11:54.468Z,161.45
2022-10-04T12:14:49.444Z,161.00
2022-10-04T12:17:39.108Z,159.90
2022-10-04T12:20:28.855Z,157.43
2022-10-04T12:23:22.834Z,166.35
2022-10-04T12:25:58.592Z,163.43
2022-10-04T12:31:16.438Z,155.82
2022-10-04T12:33:56.585Z,157.18
2022-10-04T12:36:50.121Z,160.13
2022-10-04T12:39:31.483Z,156.25
2022-10-04T12:41:58.040Z,157.07
2022-10-04T12:44:53.021Z,166.98
2022-10-04T12:47:44.856Z,157.68
2022-10-04T12:50:54.375Z,156.80
2022-10-04T12:53:34.724Z,153.55
2022-10-04T12:56:07.569Z,155.85
2022-10-04T12:58:54.476Z,157.00
2022-10-04T13:01:27.562Z,160.05
2022-10-04T13:03:54.389Z,153.32
2022-10-04T13:06:30.180Z,157.98
2022-10-04T13:11:52.336Z,163.43
2022-10-04T13:14:36.263Z,153.15
2022-10-04T13:17:34.800Z,158.95
2022-10-04T13:20:37.926Z,153.15
2022-10-04T13:23:23.077Z,159.88
2022-10-04T13:25:52.949Z,160.52
2022-10-04T13:28:30.744Z,157.57
2022-10-04T13:31:06.855Z,155.57
2022-10-04T13:34:24.885Z,156.90
2022-10-04T13:37:31.346Z,156.10
2022-10-04T13:40:25.595Z,161.25
2022-10-04T13:43:04.093Z,151.15
2022-10-04T13:45:52.034Z,157.23
2022-10-04T13:48:34.701Z,162.35
2022-10-04T13:51:38.459Z,161.27
2022-10-04T13:54:53.478Z,165.50
2022-10-04T13:57:45.616Z,155.63
2022-10-04T14:00:19.553Z,158.32
2022-10-04T14:02:51.841Z,158.88
2022-10-04T14:05:31.513Z,160.90
2022-10-04T14:08:09.969Z,160.43
2022-10-04T14:10:42.868Z,161.32
2022-10-04T14:13:49.003Z,159.40
2022-10-04T14:17:01.665Z,164.97
2022-10-04T14:19:50.008Z,163.63
2022-10-04T14:22:51.625Z,163.38
2022-10-04T14:25:51.730Z,161.93
2022-10-04T14:28:38.541Z,159.00
2022-10-04T14:31:20.126Z,162.75
2022-10-04T14:34:15.888Z,165.15
2022-10-04T14:37:01.218Z,160.07
2022-10-04T14:39:55.084Z,163.23
2022-10-04T14:42:54.688Z,159.65
2022-10-04T14:45:21.800Z,163.07
2022-10-04T14:48:19.799Z,159.13
2022-10-04T14:51:18.234Z,166.13
2022-10-04T14:54:04.019Z,164.32
2022-10-04T14:56:51.120Z,161.85
2022-10-04T14:59:56.112Z,169.68
2022-10-04T15:02:34.178Z,159.68
2022-10-04T15:05:05.295Z,160.05
2022-10-04T15:07:39.851Z,161.93
2022-10-04T15:10:29.719Z,162.43
2022-10-04T15:13:16.869Z,160.45
2022-10-04T15:16:04.410Z,168.15
2022-10-04T15:18:48.742Z,166.00
2022-10-04T15:21:40.299Z,158.32
2022-10-04T15:24:15.767Z,155.32
2022-10-04T15:26:50.816Z,163.02
2022-10-04T15:29:30.060Z,168.93
2022-10-04T15:32:18.504Z,163.80
2022-10-04T15:35:14.634Z,161.65
2022-10-04T15:37:58.325Z,168.43
2022-10-04T15:40:40.094Z,158.93
2022-10-04T15:43:21.231Z,160.45
2022-10-04T15:46:08.128Z,160.32
2022-10-04T15:49:00.018Z,162.63
2022-10-04T15:52:05.040Z,162.75
2022-10-04T15:54:43.913Z,165.10
2022-10-04T15:57:31.248Z,167.35
2022-10-04T16:00:49.181Z,165.38
2022-10-04T16:03:29.214Z,161.68
2022-10-04T16:06:29.456Z,164.10
2022-10-04T16:09:14.298Z,163.95
2022-10-04T16:12:02.109Z,161.60
2022-10-04T16:14:42.031Z,158.57
2022-10-04T16:17:30.283Z,170.88
2022-10-04T16:20:15.972Z,166.85
2022-10-04T16:23:22.011Z,181.55
2022-10-04T16:25:48.990Z,171.60
2022-10-04T16:28:21.829Z,170.68
2022-10-04T16:31:27.521Z,174.90
2022-10-04T16:33:56.402Z,174.60
2022-10-04T16:36:27.743Z,183.55
2022-10-04T16:39:18.438Z,176.70
2022-10-04T16:42:06.867Z,177.77
2022-10-04T16:44:36.815Z,184.02
2022-10-04T16:47:38.341Z,184.10
2022-10-04T16:50:09.926Z,186.32
2022-10-04T16:52:51.712Z,184.85
2022-10-04T16:55:25.772Z,177.13
2022-10-04T16:58:41.422Z,179.68
2022-10-04T17:01:26.003Z,182.07
2022-10-04T17:04:05.017Z,169.77
2022-10-04T17:06:58.229Z,175.68
2022-10-04T17:09:37.312Z,178.20
2022-10-04T17:12:19.097Z,176.98
2022-10-04T17:15:04.329Z,176.63
2022-10-04T17:17:55.132Z,183.10
2022-10-04T17:20:43.432Z,169.75
2022-10-04T17:23:40.249Z,170.38
2022-10-04T17:28:51.993Z,166.98
2022-10-04T17:31:27.491Z,166.65
2022-10-04T17:34:03.443Z,170.63
2022-10-04T17:36:50.206Z,171.20
2022-10-04T17:39:39.734Z,170.32
2022-10-04T17:42:30.671Z,165.13
2022-10-04T17:45:03.146Z,166.05
2022-10-04T17:48:11.651Z,163.38
2022-10-04T17:51:04.339Z,163.38
2022-10-04T17:53:54.137Z,167.77
2022-10-04T17:57:10.328Z,166.02
2022-10-04T18:00:09.302Z,160.10
2022-10-04T18:03:16.577Z,160.52
2022-10-04T18:05:47.166Z,166.93
2022-10-04T18:08:41.493Z,170.88
2022-10-04T18:11:47.299Z,169.65
2022-10-04T18:15:01.793Z,172.50
2022-10-04T18:17:37.489Z,154.65
2022-10-04T18:20:45.261Z,167.45
2022-10-04T18:23:25.394Z,163.57
2022-10-04T18:25:57.635Z,164.75
2022-10-04T18:28:25.064Z,162.77
2022-10-04T18:31:00.528Z,168.75
2022-10-04T18:33:33.461Z,165.27
2022-10-04T18:36:03.198Z,168.32
2022-10-04T18:38:31.775Z,163.63
2022-10-04T18:41:01.777Z,166.73
2022-10-04T18:43:30.492Z,167.18
2022-10-04T18:46:24.981Z,175.20
2022-10-04T18:49:13.720Z,175.38
2022-10-04T18:52:11.403Z,172.70
2022-10-04T18:55:12.894Z,166.80
2022-10-04T18:58:02.700Z,172.43
2022-10-04T19:01:08.654Z,168.15
2022-10-04T19:03:44.304Z,165.05
2022-10-04T19:06:20.868Z,174.32
2022-10-04T19:08:57.974Z,162.30
2022-10-04T19:11:34.364Z,179.55
2022-10-04T19:14:38.521Z,166.82
2022-10-04T19:17:08.009Z,171.43
2022-10-04T19:19:53.377Z,169.13
2022-10-04T19:22:19.977Z,164.32
2022-10-04T19:25:01.796Z,163.25
2022-10-04T19:27:36.437Z,152.95
2022-10-04T19:30:24.423Z,168.25
2022-10-04T19:33:06.848Z,154.73
2022-10-04T19:36:00.871Z,166.68
2022-10-04T19:38:37.913Z,161.15
2022-10-04T19:41:29.022Z,172.63
2022-10-04T19:44:11.297Z,167.02
2022-10-04T19:46:53.087Z,156.90
2022-10-04T19:49:52.680Z,160.70
2022-10-04T19:52:49.612Z,172.27
2022-10-04T19:55:26.315Z,160.30
2022-10-04T19:58:31.831Z,160.57
2022-10-04T20:00:58.553Z,148.48
2022-10-04T20:03:25.778Z,152.95
2022-10-04T20:05:54.461Z,155.48
2022-10-04T20:08:52.099Z,159.45
2022-10-04T20:11:25.852Z,154.50
2022-10-04T20:14:05.063Z,156.10
2022-10-04T20:16:47.160Z,163.00
2022-10-04T20:19:37.501Z,163.32
2022-10-04T20:22:13.697Z,154.75
2022-10-04T20:27:24.738Z,156.50
2022-10-04T20:29:53.980Z,154.48
2022-10-04T20:32:26.649Z,163.00
2022-10-04T20:34:55.433Z,162.48
2022-10-04T20:37:42.221Z,164.70
2022-10-04T20:40:08.832Z,169.82
2022-10-04T20:42:39.226Z,164.68
2022-10-04T20:45:08.852Z,162.60
2022-10-04T20:47:57.492Z,156.90
2022-10-04T20:50:43.319Z,162.80
2022-10-04T20:53:17.804Z,167.70
2022-10-04T20:55:46.115Z,159.70
2022-10-04T20:58:35.297Z,163.25
2022-10-04T21:01:36.875Z,158.27
2022-10-04T21:04:29.624Z,164.80
2022-10-04T21:07:02.229Z,161.45
2022-10-04T21:09:33.953Z,164.80
2022-10-04T21:12:01.738Z,157.95
2022-10-04T21:14:38.004Z,160.48
2022-10-04T21:17:25.381Z,155.10
2022-10-04T21:19:54.581Z,156.00
2022-10-04T21:22:28.888Z,167.18
2022-10-04T21:25:25.490Z,155.60
2022-10-04T21:27:52.082Z,155.90
2022-10-04T21:30:23.044Z,163.18
2022-10-04T21:32:49.670Z,155.65
2022-10-04T21:35:16.299Z,153.98
2022-10-04T21:37:42.985Z,160.30
2022-10-04T21:40:09.786Z,152.52
2022-10-04T21:42:36.389Z,154.07
2022-10-04T21:45:03.396Z,153.02
2022-10-04T21:47:30.026Z,163.90
2022-10-04T21:49:56.597Z,161.68
2022-10-04T21:52:23.239Z,161.07
2022-10-04T21:54:49.857Z,151.20
2022-10-04T21:57:16.492Z,150.10
2022-10-04T21:59:43.133Z,153.70
2022-10-04T22:02:09.768Z,154.73
2022-10-04T22:04:38.111Z,150.05
2022-10-04T22:07:04.987Z,159.60
2022-10-04T22:09:33.120Z,158.40
2022-10-04T22:11:59.730Z,150.88
2022-10-04T22:14:26.315Z,147.77
2022-10-04T22:16:53.034Z,154.18
2022-10-04T22:19:19.710Z,154.80
2022-10-04T22:21:46.333Z,150.70
2022-10-04T22:24:17.655Z,150.07
2022-10-04T22:26:44.979Z,151.65
2022-10-04T22:29:16.845Z,158.95
2022-10-04T22:31:50.672Z,159.10
2022-10-04T22:34:20.218Z,147.73
2022-10-04T22:36:49.914Z,158.48
2022-10-04T22:39:20.871Z,159.90
2022-10-04T22:41:52.687Z,147.02
2022-10-04T22:44:25.762Z,149.10
2022-10-04T22:46:56.080Z,144.95
2022-10-04T22:49:26.743Z,147.27
2022-10-04T22:51:54.966Z,147.02
2022-10-04T22:54:27.127Z,144.02
2022-10-04T22:56:54.065Z,146.05
2022-10-04T22:59:23.105Z,144.90
2022-10-04T23:01:49.880Z,144.40
2022-10-04T23:04:22.765Z,150.85
2022-10-04T23:06:50.769Z,151.57
2022-10-04T23:09:17.808Z,154.38
2022-10-04T23:11:44.744Z,151.48
2022-10-04T23:14:11.639Z,149.88
2022-10-04T23:16:38.889Z,149.27
2022-10-04T23:19:08.528Z,155.30
2022-10-04T23:21:37.848Z,149.82
2022-10-04T23:24:24.800Z,148.68
2022-10-04T23:26:56.403Z,151.20
2022-10-04T23:29:33.581Z,152.20
2022-10-04T23:32:09.393Z,144.50
2022-10-04T23:34:38.240Z,145.98
2022-10-04T23:37:15.508Z,153.48
2022-10-04T23:39:42.721Z,149.85
2022-10-04T23:42:32.293Z,146.15
2022-10-04T23:45:00.129Z,151.50
2022-10-04T23:47:34.802Z,140.20
2022-10-04T23:50:02.293Z,140.63
2022-10-04T23:52:37.438Z,142.90
2022-10-04T23:55:16.748Z,146.77
2022-10-04T23:57:43.396Z,141.93
